»·PEaware :: WAT2489 KVNY-KSLC

WAT2489 :: KVNY-KSLC

FLIGHT INFORMATION

Flight Status: Arrived
Operator:
Walker Air Transport
More flights by this operator :: More flights under this callsign
Pilot: Graham D. (41507)
Aircraft: CANADAIR CL-600 CHALLENGER
(CL60)
More flights by this aircraft type
Origin: KVNY Van Nuys
United States
Destination: KSLC Salt Lake City Intl
United States
More flights between these airports :: More routes between these airports
Route: HAYEZ9 LAS Q70 BLIPP Q842 WINEN MLF DELTA6
File this flight plan on PilotEdge
Remarks:
Altitude:
(Current/Filed)
41,000ft
Speed:
(Current/Filed)
465kts
Departed: 22-Nov-23 02:17 PM
Arrived: 22-Nov-23 03:42 PM
Distance/Time
Traveled:
501nm/1:25
Distance/Time
To Go:
Arrived

Flight Plot

Page will automatically refresh every two minutes.

Flight plan parsing failed; only flown route is shown


Map Options




Map Legend


Flown Route
Filed Route
Departure Airport
Arrival Airport
Navaid (VOR, NDB)
Fix

Horizontal Profiles

Position Reports

Time Latitude Longitude Heading Altitude Ground
Speed
22-Nov-23 13:55 34.202354 -118.491537 181 809ft 0kts
22-Nov-23 13:56 34.202354 -118.491537 181 809ft 0kts
22-Nov-23 13:57 34.202354 -118.491537 181 809ft 0kts
22-Nov-23 13:58 34.202354 -118.491537 181 809ft 0kts
22-Nov-23 13:59 34.202354 -118.491537 181 809ft 0kts
22-Nov-23 14:00 34.202354 -118.491537 181 809ft 0kts
22-Nov-23 14:01 34.202354 -118.491537 181 809ft 0kts
22-Nov-23 14:02 34.202354 -118.491537 181 809ft 0kts
22-Nov-23 14:03 34.202354 -118.491537 181 809ft 0kts
22-Nov-23 14:04 34.202354 -118.491537 181 809ft 0kts
22-Nov-23 14:05 34.202354 -118.491537 181 809ft 0kts
22-Nov-23 14:06 34.202354 -118.491537 181 809ft 0kts
22-Nov-23 14:07 34.202354 -118.491537 181 809ft 0kts
22-Nov-23 14:08 34.202354 -118.491537 181 809ft 0kts
22-Nov-23 14:09 34.202354 -118.491537 181 809ft 0kts
22-Nov-23 14:10 34.202354 -118.491537 181 809ft 0kts
22-Nov-23 14:11 34.202310 -118.491496 117 809ft 1kts
22-Nov-23 14:12 34.202188 -118.490699 151 809ft 6kts
22-Nov-23 14:13 34.198645 -118.490164 175 809ft 18kts
22-Nov-23 14:14 34.197227 -118.489986 144 809ft 0kts
22-Nov-23 14:15 34.197768 -118.489229 357 809ft 30kts
22-Nov-23 14:16 34.236289 -118.493277 354 2178ft 188kts
22-Nov-23 14:17 34.289912 -118.501935 343 6118ft 205kts
22-Nov-23 14:18 34.354608 -118.519448 350 9855ft 265kts
22-Nov-23 14:19 34.420939 -118.467943 50 12397ft 350kts
22-Nov-23 14:20 34.458699 -118.352166 66 15809ft 384kts
22-Nov-23 14:21 34.534879 -118.260699 38 18909ft 402kts
22-Nov-23 14:22 34.621662 -118.173778 38 19089ft 400kts
22-Nov-23 14:23 34.676889 -118.057641 76 20564ft 425kts
22-Nov-23 14:24 34.695744 -117.914216 84 23342ft 438kts
22-Nov-23 14:25 34.704379 -117.763485 84 25161ft 454kts
22-Nov-23 14:26 34.710544 -117.607379 85 26758ft 468kts
22-Nov-23 14:27 34.727039 -117.449633 67 28360ft 471kts
22-Nov-23 14:28 34.769112 -117.298896 68 30264ft 470kts
22-Nov-23 14:29 34.809722 -117.147527 69 32021ft 469kts
22-Nov-23 14:30 34.849531 -116.996466 69 33680ft 467kts
22-Nov-23 14:31 34.888815 -116.846260 69 35279ft 463kts
22-Nov-23 14:32 34.941298 -116.705980 46 36730ft 448kts
22-Nov-23 14:33 35.023886 -116.593837 43 37997ft 443kts
22-Nov-23 14:34 35.106116 -116.483999 43 39098ft 441kts
22-Nov-23 14:35 35.187709 -116.375187 42 40123ft 438kts
22-Nov-23 14:36 35.269913 -116.265530 43 40977ft 436kts
22-Nov-23 14:37 35.352999 -116.154573 43 41152ft 449kts
22-Nov-23 14:38 35.438753 -116.039775 43 41162ft 463kts
22-Nov-23 14:39 35.525962 -115.922632 43 41189ft 467kts
22-Nov-23 14:40 35.613451 -115.804700 43 41190ft 466kts
22-Nov-23 14:42 35.700006 -115.686269 44 41190ft 465kts
22-Nov-23 14:43 35.786282 -115.567354 44 41189ft 466kts
22-Nov-23 14:44 35.872447 -115.448193 44 41186ft 466kts
22-Nov-23 14:45 35.958856 -115.328278 44 41175ft 466kts
22-Nov-23 14:46 36.044863 -115.208507 44 41176ft 466kts
22-Nov-23 14:47 36.137384 -115.097533 37 41176ft 463kts
22-Nov-23 14:48 36.234683 -114.992814 37 41174ft 463kts
22-Nov-23 14:49 36.331978 -114.887676 37 41173ft 463kts
22-Nov-23 14:50 36.428899 -114.782547 37 41174ft 463kts
22-Nov-23 14:51 36.525767 -114.677149 37 41173ft 464kts
22-Nov-23 14:52 36.622793 -114.571208 37 41170ft 463kts
22-Nov-23 14:53 36.721365 -114.467905 31 41173ft 460kts
22-Nov-23 14:54 36.828628 -114.382200 27 41173ft 459kts
22-Nov-23 14:55 36.936461 -114.297475 28 41175ft 459kts
22-Nov-23 14:56 37.044756 -114.212078 28 41174ft 460kts
22-Nov-23 14:57 37.153000 -114.126426 28 41188ft 460kts
22-Nov-23 14:58 37.261101 -114.040563 28 41199ft 461kts
22-Nov-23 14:59 37.369039 -113.954025 28 41203ft 461kts
22-Nov-23 15:00 37.477575 -113.867406 28 41206ft 460kts
22-Nov-23 15:01 37.585762 -113.780740 28 41203ft 461kts
22-Nov-23 15:02 37.693579 -113.693977 28 41203ft 462kts
22-Nov-23 15:03 37.802119 -113.606413 28 41213ft 461kts
22-Nov-23 15:04 37.909805 -113.518893 30 41199ft 462kts
22-Nov-23 15:05 38.009553 -113.415326 38 41203ft 465kts
22-Nov-23 15:06 38.104364 -113.306994 38 41195ft 465kts
22-Nov-23 15:07 38.201024 -113.196345 38 41197ft 466kts
22-Nov-23 15:07 38.281103 -113.104571 38 41191ft 465kts
22-Nov-23 15:09 38.399970 -112.989170 19 41188ft 455kts
22-Nov-23 15:10 38.517258 -112.927817 18 40364ft 465kts
22-Nov-23 15:11 38.635489 -112.865466 19 38008ft 459kts
22-Nov-23 15:11 38.734445 -112.812708 19 35947ft 463kts
22-Nov-23 15:12 38.853465 -112.748855 19 33499ft 466kts
22-Nov-23 15:13 38.970727 -112.685652 20 31076ft 448kts
22-Nov-23 15:15 39.101611 -112.614787 20 28364ft 429kts
22-Nov-23 15:15 39.191864 -112.565688 20 26990ft 419kts
22-Nov-23 15:16 39.298633 -112.507406 19 25714ft 413kts
22-Nov-23 15:17 39.407619 -112.469805 10 24470ft 402kts
22-Nov-23 15:18 39.514750 -112.434823 11 23254ft 395kts
22-Nov-23 15:19 39.620242 -112.399829 11 21848ft 386kts
22-Nov-23 15:20 39.723355 -112.365415 11 20666ft 381kts
22-Nov-23 15:21 39.825395 -112.331224 11 19495ft 375kts
22-Nov-23 15:23 39.942249 -112.291961 11 18161ft 368kts
22-Nov-23 15:23 40.024780 -112.264140 11 17214ft 363kts
22-Nov-23 15:24 40.122031 -112.231241 12 16105ft 357kts
22-Nov-23 15:25 40.217305 -112.198894 12 14995ft 351kts
22-Nov-23 15:26 40.311116 -112.167010 12 14045ft 345kts
22-Nov-23 15:27 40.404102 -112.135321 12 14018ft 344kts
22-Nov-23 15:28 40.494080 -112.104595 12 12739ft 319kts
22-Nov-23 15:29 40.576340 -112.079783 0 11759ft 295kts
22-Nov-23 15:30 40.657847 -112.079182 352 11037ft 285kts
22-Nov-23 15:31 40.733262 -112.089480 353 11017ft 258kts
22-Nov-23 15:32 40.802585 -112.097853 352 11008ft 247kts
22-Nov-23 15:33 40.871312 -112.106038 352 11005ft 247kts
22-Nov-23 15:34 40.938403 -112.113707 353 9973ft 242kts
22-Nov-23 15:35 40.985496 -112.075618 89 9030ft 240kts
22-Nov-23 15:36 40.985052 -111.995443 100 8057ft 205kts
22-Nov-23 15:37 40.952321 -111.950552 198 7206ft 197kts
22-Nov-23 15:38 40.900691 -111.961737 181 6208ft 184kts
22-Nov-23 15:39 40.852669 -111.962002 182 5296ft 151kts
22-Nov-23 15:40 40.812847 -111.962063 181 4531ft 143kts
22-Nov-23 15:41 40.782032 -111.962027 180 4228ft 25kts
22-Nov-23 15:42 40.773570 -111.962078 179 4233ft 19kts

Navigation Log

Ident Type
Flight plan parsing failed, navigation log unavailable